sensor_id;sensor_type;location;lat;lon;timestamp;P1;durP1;ratioP1;P2;durP2;ratioP2
80675;SDS011;70041;46.088;18.268;2024-02-21T00:01:06;5.53;;;1.90;;
80675;SDS011;70041;46.088;18.268;2024-02-21T00:03:31;5.57;;;1.93;;
80675;SDS011;70041;46.088;18.268;2024-02-21T00:05:57;5.60;;;1.90;;
80675;SDS011;70041;46.088;18.268;2024-02-21T00:08:22;4.77;;;1.80;;
80675;SDS011;70041;46.088;18.268;2024-02-21T00:10:47;4.97;;;2.08;;
80675;SDS011;70041;46.088;18.268;2024-02-21T00:13:14;4.33;;;1.90;;
80675;SDS011;70041;46.088;18.268;2024-02-21T00:15:40;5.03;;;1.80;;
80675;SDS011;70041;46.088;18.268;2024-02-21T00:18:05;5.77;;;2.00;;
80675;SDS011;70041;46.088;18.268;2024-02-21T00:20:30;5.93;;;1.93;;
80675;SDS011;70041;46.088;18.268;2024-02-21T00:22:56;6.28;;;2.10;;
80675;SDS011;70041;46.088;18.268;2024-02-21T00:25:21;5.97;;;2.53;;
80675;SDS011;70041;46.088;18.268;2024-02-21T00:27:47;5.70;;;1.93;;
80675;SDS011;70041;46.088;18.268;2024-02-21T00:30:12;5.27;;;1.60;;
80675;SDS011;70041;46.088;18.268;2024-02-21T00:32:38;4.57;;;1.60;;
80675;SDS011;70041;46.088;18.268;2024-02-21T00:35:03;5.65;;;1.60;;
80675;SDS011;70041;46.088;18.268;2024-02-21T00:37:29;6.93;;;1.40;;
80675;SDS011;70041;46.088;18.268;2024-02-21T00:39:54;4.87;;;1.70;;
80675;SDS011;70041;46.088;18.268;2024-02-21T00:42:20;5.47;;;1.75;;
80675;SDS011;70041;46.088;18.268;2024-02-21T00:44:46;3.35;;;1.25;;
80675;SDS011;70041;46.088;18.268;2024-02-21T00:47:11;4.87;;;1.50;;
80675;SDS011;70041;46.088;18.268;2024-02-21T00:49:37;6.03;;;1.80;;
80675;SDS011;70041;46.088;18.268;2024-02-21T00:52:02;3.57;;;1.50;;
80675;SDS011;70041;46.088;18.268;2024-02-21T00:54:28;4.07;;;1.23;;
80675;SDS011;70041;46.088;18.268;2024-02-21T00:56:53;4.90;;;1.37;;
80675;SDS011;70041;46.088;18.268;2024-02-21T00:59:19;5.40;;;1.83;;
80675;SDS011;70041;46.088;18.268;2024-02-21T01:01:44;3.97;;;1.23;;
80675;SDS011;70041;46.088;18.268;2024-02-21T01:04:09;5.80;;;1.20;;
80675;SDS011;70041;46.088;18.268;2024-02-21T01:06:35;6.28;;;1.45;;
80675;SDS011;70041;46.088;18.268;2024-02-21T01:09:00;5.43;;;1.50;;
80675;SDS011;70041;46.088;18.268;2024-02-21T01:11:26;4.57;;;1.30;;
80675;SDS011;70041;46.088;18.268;2024-02-21T01:13:51;4.07;;;1.20;;
80675;SDS011;70041;46.088;18.268;2024-02-21T01:16:16;3.67;;;1.20;;
80675;SDS011;70041;46.088;18.268;2024-02-21T01:18:42;3.77;;;1.53;;
80675;SDS011;70041;46.088;18.268;2024-02-21T01:21:07;5.75;;;1.30;;
80675;SDS011;70041;46.088;18.268;2024-02-21T01:23:36;5.67;;;1.30;;
80675;SDS011;70041;46.088;18.268;2024-02-21T01:26:02;6.95;;;1.70;;
80675;SDS011;70041;46.088;18.268;2024-02-21T01:28:28;4.30;;;1.30;;
80675;SDS011;70041;46.088;18.268;2024-02-21T01:30:55;6.50;;;1.75;;
80675;SDS011;70041;46.088;18.268;2024-02-21T01:33:21;2.73;;;1.10;;
80675;SDS011;70041;46.088;18.268;2024-02-21T01:35:46;6.03;;;1.40;;
80675;SDS011;70041;46.088;18.268;2024-02-21T01:38:12;3.03;;;1.20;;
80675;SDS011;70041;46.088;18.268;2024-02-21T01:40:38;4.47;;;1.50;;
80675;SDS011;70041;46.088;18.268;2024-02-21T01:43:03;3.88;;;1.20;;
80675;SDS011;70041;46.088;18.268;2024-02-21T01:45:29;3.73;;;1.30;;
80675;SDS011;70041;46.088;18.268;2024-02-21T01:47:54;4.60;;;1.40;;
80675;SDS011;70041;46.088;18.268;2024-02-21T01:50:20;6.00;;;1.50;;
80675;SDS011;70041;46.088;18.268;2024-02-21T01:52:47;4.22;;;1.30;;
80675;SDS011;70041;46.088;18.268;2024-02-21T01:55:14;5.30;;;1.50;;
80675;SDS011;70041;46.088;18.268;2024-02-21T01:57:41;5.50;;;1.30;;
80675;SDS011;70041;46.088;18.268;2024-02-21T02:00:08;3.92;;;1.30;;
80675;SDS011;70041;46.088;18.268;2024-02-21T02:02:35;6.73;;;1.63;;
80675;SDS011;70041;46.088;18.268;2024-02-21T02:05:02;6.15;;;1.33;;
80675;SDS011;70041;46.088;18.268;2024-02-21T02:07:28;5.00;;;1.38;;
80675;SDS011;70041;46.088;18.268;2024-02-21T02:09:53;4.97;;;1.30;;
80675;SDS011;70041;46.088;18.268;2024-02-21T02:12:19;3.07;;;1.10;;
80675;SDS011;70041;46.088;18.268;2024-02-21T02:14:44;3.22;;;1.05;;
80675;SDS011;70041;46.088;18.268;2024-02-21T02:17:10;5.37;;;1.40;;
80675;SDS011;70041;46.088;18.268;2024-02-21T02:19:35;4.97;;;1.27;;
80675;SDS011;70041;46.088;18.268;2024-02-21T02:22:06;5.73;;;1.40;;
80675;SDS011;70041;46.088;18.268;2024-02-21T02:24:40;5.63;;;1.30;;
80675;SDS011;70041;46.088;18.268;2024-02-21T02:27:06;4.00;;;1.07;;
80675;SDS011;70041;46.088;18.268;2024-02-21T02:29:32;5.35;;;1.25;;
80675;SDS011;70041;46.088;18.268;2024-02-21T02:31:57;5.65;;;1.30;;
80675;SDS011;70041;46.088;18.268;2024-02-21T02:34:23;4.60;;;1.30;;
80675;SDS011;70041;46.088;18.268;2024-02-21T02:36:49;8.57;;;1.40;;
80675;SDS011;70041;46.088;18.268;2024-02-21T02:39:14;4.28;;;1.17;;
80675;SDS011;70041;46.088;18.268;2024-02-21T02:41:39;2.67;;;1.10;;
80675;SDS011;70041;46.088;18.268;2024-02-21T02:44:05;2.83;;;0.97;;
80675;SDS011;70041;46.088;18.268;2024-02-21T02:46:30;6.57;;;1.60;;
80675;SDS011;70041;46.088;18.268;2024-02-21T02:48:56;5.37;;;1.30;;
80675;SDS011;70041;46.088;18.268;2024-02-21T02:51:21;4.87;;;1.50;;
80675;SDS011;70041;46.088;18.268;2024-02-21T02:53:46;5.38;;;1.35;;
80675;SDS011;70041;46.088;18.268;2024-02-21T02:56:15;3.50;;;1.20;;
80675;SDS011;70041;46.088;18.268;2024-02-21T02:58:41;4.88;;;1.23;;
80675;SDS011;70041;46.088;18.268;2024-02-21T03:01:08;6.17;;;1.80;;
80675;SDS011;70041;46.088;18.268;2024-02-21T03:03:33;5.10;;;1.23;;
80675;SDS011;70041;46.088;18.268;2024-02-21T03:05:59;3.83;;;1.13;;
80675;SDS011;70041;46.088;18.268;2024-02-21T03:08:24;3.90;;;1.30;;
80675;SDS011;70041;46.088;18.268;2024-02-21T03:10:49;3.67;;;1.43;;
80675;SDS011;70041;46.088;18.268;2024-02-21T03:13:15;5.90;;;1.50;;
80675;SDS011;70041;46.088;18.268;2024-02-21T03:15:41;5.43;;;1.43;;
80675;SDS011;70041;46.088;18.268;2024-02-21T03:18:06;5.22;;;1.50;;
80675;SDS011;70041;46.088;18.268;2024-02-21T03:20:32;3.43;;;1.33;;
80675;SDS011;70041;46.088;18.268;2024-02-21T03:22:57;5.95;;;1.55;;
80675;SDS011;70041;46.088;18.268;2024-02-21T03:25:23;5.10;;;1.40;;
80675;SDS011;70041;46.088;18.268;2024-02-21T03:27:48;3.97;;;1.30;;
80675;SDS011;70041;46.088;18.268;2024-02-21T03:30:13;4.63;;;1.60;;
80675;SDS011;70041;46.088;18.268;2024-02-21T03:32:41;4.85;;;1.33;;
80675;SDS011;70041;46.088;18.268;2024-02-21T03:35:06;3.13;;;1.13;;
80675;SDS011;70041;46.088;18.268;2024-02-21T03:37:32;4.18;;;1.70;;
80675;SDS011;70041;46.088;18.268;2024-02-21T03:39:57;6.33;;;1.30;;
80675;SDS011;70041;46.088;18.268;2024-02-21T03:42:23;6.27;;;2.57;;
80675;SDS011;70041;46.088;18.268;2024-02-21T03:44:48;3.13;;;1.10;;
80675;SDS011;70041;46.088;18.268;2024-02-21T03:47:13;5.47;;;1.52;;
80675;SDS011;70041;46.088;18.268;2024-02-21T03:49:39;5.45;;;1.63;;
80675;SDS011;70041;46.088;18.268;2024-02-21T03:52:04;4.57;;;1.20;;
80675;SDS011;70041;46.088;18.268;2024-02-21T03:54:30;2.90;;;1.10;;
80675;SDS011;70041;46.088;18.268;2024-02-21T03:56:55;4.70;;;1.10;;
80675;SDS011;70041;46.088;18.268;2024-02-21T03:59:22;5.03;;;1.20;;
80675;SDS011;70041;46.088;18.268;2024-02-21T04:01:51;3.73;;;1.10;;
80675;SDS011;70041;46.088;18.268;2024-02-21T04:04:17;3.42;;;1.27;;
80675;SDS011;70041;46.088;18.268;2024-02-21T04:06:46;6.73;;;1.40;;
80675;SDS011;70041;46.088;18.268;2024-02-21T04:09:15;4.30;;;1.30;;
80675;SDS011;70041;46.088;18.268;2024-02-21T04:11:40;4.63;;;1.30;;
80675;SDS011;70041;46.088;18.268;2024-02-21T04:14:06;8.07;;;1.40;;
80675;SDS011;70041;46.088;18.268;2024-02-21T04:16:32;4.70;;;1.47;;
80675;SDS011;70041;46.088;18.268;2024-02-21T04:18:57;3.83;;;1.23;;
80675;SDS011;70041;46.088;18.268;2024-02-21T04:21:23;4.33;;;1.20;;
80675;SDS011;70041;46.088;18.268;2024-02-21T04:23:48;5.63;;;1.43;;
80675;SDS011;70041;46.088;18.268;2024-02-21T04:26:13;6.03;;;1.63;;
80675;SDS011;70041;46.088;18.268;2024-02-21T04:28:39;4.77;;;1.70;;
80675;SDS011;70041;46.088;18.268;2024-02-21T04:31:04;4.25;;;1.60;;
80675;SDS011;70041;46.088;18.268;2024-02-21T04:33:30;3.53;;;1.27;;
80675;SDS011;70041;46.088;18.268;2024-02-21T04:35:55;3.80;;;1.40;;
80675;SDS011;70041;46.088;18.268;2024-02-21T04:38:21;3.83;;;1.17;;
80675;SDS011;70041;46.088;18.268;2024-02-21T04:40:46;4.30;;;1.52;;
80675;SDS011;70041;46.088;18.268;2024-02-21T04:43:12;6.87;;;1.60;;
80675;SDS011;70041;46.088;18.268;2024-02-21T04:45:37;8.40;;;1.63;;
80675;SDS011;70041;46.088;18.268;2024-02-21T04:48:03;4.07;;;1.13;;
80675;SDS011;70041;46.088;18.268;2024-02-21T04:50:28;4.90;;;1.00;;
80675;SDS011;70041;46.088;18.268;2024-02-21T04:52:54;4.40;;;1.33;;
80675;SDS011;70041;46.088;18.268;2024-02-21T04:55:19;4.50;;;1.33;;
80675;SDS011;70041;46.088;18.268;2024-02-21T04:57:44;6.00;;;1.50;;
80675;SDS011;70041;46.088;18.268;2024-02-21T05:00:10;6.72;;;1.50;;
80675;SDS011;70041;46.088;18.268;2024-02-21T05:02:35;4.17;;;1.30;;
80675;SDS011;70041;46.088;18.268;2024-02-21T05:05:01;3.97;;;1.20;;
80675;SDS011;70041;46.088;18.268;2024-02-21T05:07:27;4.07;;;1.58;;
80675;SDS011;70041;46.088;18.268;2024-02-21T05:09:53;6.10;;;1.40;;
80675;SDS011;70041;46.088;18.268;2024-02-21T05:12:18;4.33;;;1.50;;
80675;SDS011;70041;46.088;18.268;2024-02-21T05:14:43;4.85;;;1.25;;
80675;SDS011;70041;46.088;18.268;2024-02-21T05:17:09;4.13;;;1.20;;
80675;SDS011;70041;46.088;18.268;2024-02-21T05:19:34;6.20;;;1.33;;
80675;SDS011;70041;46.088;18.268;2024-02-21T05:22:00;5.10;;;1.30;;
80675;SDS011;70041;46.088;18.268;2024-02-21T05:24:25;4.40;;;1.60;;
80675;SDS011;70041;46.088;18.268;2024-02-21T05:26:51;4.75;;;1.38;;
80675;SDS011;70041;46.088;18.268;2024-02-21T05:29:16;3.87;;;1.40;;
80675;SDS011;70041;46.088;18.268;2024-02-21T05:31:43;5.45;;;1.60;;
80675;SDS011;70041;46.088;18.268;2024-02-21T05:34:21;3.70;;;1.50;;
80675;SDS011;70041;46.088;18.268;2024-02-21T05:36:46;6.75;;;1.65;;
80675;SDS011;70041;46.088;18.268;2024-02-21T05:39:13;5.03;;;1.67;;
80675;SDS011;70041;46.088;18.268;2024-02-21T05:41:39;5.50;;;1.20;;
80675;SDS011;70041;46.088;18.268;2024-02-21T05:44:04;4.20;;;1.10;;
80675;SDS011;70041;46.088;18.268;2024-02-21T05:46:30;4.82;;;1.33;;
80675;SDS011;70041;46.088;18.268;2024-02-21T05:48:55;6.17;;;2.20;;
80675;SDS011;70041;46.088;18.268;2024-02-21T05:51:21;4.50;;;2.00;;
80675;SDS011;70041;46.088;18.268;2024-02-21T05:53:46;5.57;;;1.90;;
80675;SDS011;70041;46.088;18.268;2024-02-21T05:56:12;5.50;;;1.73;;
80675;SDS011;70041;46.088;18.268;2024-02-21T05:58:38;7.25;;;2.05;;
80675;SDS011;70041;46.088;18.268;2024-02-21T06:01:03;6.82;;;1.80;;
80675;SDS011;70041;46.088;18.268;2024-02-21T06:03:29;5.97;;;1.80;;
80675;SDS011;70041;46.088;18.268;2024-02-21T06:05:55;9.57;;;3.08;;
80675;SDS011;70041;46.088;18.268;2024-02-21T06:08:21;9.00;;;4.23;;
80675;SDS011;70041;46.088;18.268;2024-02-21T06:10:46;9.20;;;3.45;;
80675;SDS011;70041;46.088;18.268;2024-02-21T06:13:13;15.93;;;4.30;;
80675;SDS011;70041;46.088;18.268;2024-02-21T06:15:39;12.70;;;4.28;;
80675;SDS011;70041;46.088;18.268;2024-02-21T06:18:04;12.13;;;4.10;;
80675;SDS011;70041;46.088;18.268;2024-02-21T06:20:30;9.40;;;3.87;;
80675;SDS011;70041;46.088;18.268;2024-02-21T06:22:55;11.40;;;4.53;;
80675;SDS011;70041;46.088;18.268;2024-02-21T06:25:20;11.55;;;3.80;;
80675;SDS011;70041;46.088;18.268;2024-02-21T06:27:46;8.57;;;2.57;;
80675;SDS011;70041;46.088;18.268;2024-02-21T06:30:11;5.93;;;2.23;;
80675;SDS011;70041;46.088;18.268;2024-02-21T06:32:37;7.82;;;2.85;;
80675;SDS011;70041;46.088;18.268;2024-02-21T06:35:03;9.73;;;2.47;;
80675;SDS011;70041;46.088;18.268;2024-02-21T06:37:29;11.48;;;2.92;;
80675;SDS011;70041;46.088;18.268;2024-02-21T06:39:55;8.03;;;2.70;;
80675;SDS011;70041;46.088;18.268;2024-02-21T06:42:20;8.10;;;3.17;;
80675;SDS011;70041;46.088;18.268;2024-02-21T06:44:46;10.27;;;3.13;;
80675;SDS011;70041;46.088;18.268;2024-02-21T06:47:12;10.83;;;2.77;;
80675;SDS011;70041;46.088;18.268;2024-02-21T06:49:37;8.25;;;3.13;;
80675;SDS011;70041;46.088;18.268;2024-02-21T06:52:04;7.73;;;2.90;;
80675;SDS011;70041;46.088;18.268;2024-02-21T06:54:30;9.00;;;3.20;;
80675;SDS011;70041;46.088;18.268;2024-02-21T06:56:55;9.83;;;3.50;;
80675;SDS011;70041;46.088;18.268;2024-02-21T06:59:21;10.27;;;3.53;;
80675;SDS011;70041;46.088;18.268;2024-02-21T07:01:48;8.13;;;3.30;;
80675;SDS011;70041;46.088;18.268;2024-02-21T07:04:14;9.10;;;3.70;;
80675;SDS011;70041;46.088;18.268;2024-02-21T07:06:40;10.48;;;3.88;;
80675;SDS011;70041;46.088;18.268;2024-02-21T07:09:06;10.30;;;2.90;;
80675;SDS011;70041;46.088;18.268;2024-02-21T07:11:31;8.50;;;2.93;;
80675;SDS011;70041;46.088;18.268;2024-02-21T07:13:57;10.63;;;3.00;;
80675;SDS011;70041;46.088;18.268;2024-02-21T07:16:22;9.07;;;2.90;;
80675;SDS011;70041;46.088;18.268;2024-02-21T07:18:48;7.40;;;2.90;;
80675;SDS011;70041;46.088;18.268;2024-02-21T07:21:13;9.43;;;3.23;;
80675;SDS011;70041;46.088;18.268;2024-02-21T07:23:40;8.32;;;3.75;;
80675;SDS011;70041;46.088;18.268;2024-02-21T07:26:07;12.33;;;4.80;;
80675;SDS011;70041;46.088;18.268;2024-02-21T07:28:32;9.60;;;4.13;;
80675;SDS011;70041;46.088;18.268;2024-02-21T07:30:58;11.97;;;4.33;;
80675;SDS011;70041;46.088;18.268;2024-02-21T07:33:24;12.48;;;4.07;;
80675;SDS011;70041;46.088;18.268;2024-02-21T07:35:50;11.03;;;4.67;;
80675;SDS011;70041;46.088;18.268;2024-02-21T07:38:15;11.30;;;3.97;;
80675;SDS011;70041;46.088;18.268;2024-02-21T07:40:44;10.07;;;3.90;;
80675;SDS011;70041;46.088;18.268;2024-02-21T07:43:10;10.38;;;3.72;;
80675;SDS011;70041;46.088;18.268;2024-02-21T07:45:35;9.43;;;4.10;;
80675;SDS011;70041;46.088;18.268;2024-02-21T07:48:01;9.97;;;3.60;;
80675;SDS011;70041;46.088;18.268;2024-02-21T07:50:27;7.25;;;3.20;;
80675;SDS011;70041;46.088;18.268;2024-02-21T07:52:52;6.77;;;3.23;;
80675;SDS011;70041;46.088;18.268;2024-02-21T07:55:18;9.80;;;3.53;;
80675;SDS011;70041;46.088;18.268;2024-02-21T07:57:46;8.80;;;3.25;;
80675;SDS011;70041;46.088;18.268;2024-02-21T08:00:11;11.40;;;3.53;;
80675;SDS011;70041;46.088;18.268;2024-02-21T08:02:44;11.88;;;4.05;;
80675;SDS011;70041;46.088;18.268;2024-02-21T08:05:10;15.10;;;5.25;;
80675;SDS011;70041;46.088;18.268;2024-02-21T08:07:37;12.70;;;4.68;;
80675;SDS011;70041;46.088;18.268;2024-02-21T08:10:03;11.00;;;4.23;;
80675;SDS011;70041;46.088;18.268;2024-02-21T08:12:29;9.45;;;4.00;;
80675;SDS011;70041;46.088;18.268;2024-02-21T08:14:54;11.20;;;4.40;;
80675;SDS011;70041;46.088;18.268;2024-02-21T08:17:19;12.00;;;3.90;;
80675;SDS011;70041;46.088;18.268;2024-02-21T08:19:45;11.80;;;3.80;;
80675;SDS011;70041;46.088;18.268;2024-02-21T08:22:10;11.90;;;3.95;;
80675;SDS011;70041;46.088;18.268;2024-02-21T08:24:36;8.87;;;4.00;;
80675;SDS011;70041;46.088;18.268;2024-02-21T08:27:01;15.23;;;3.43;;
80675;SDS011;70041;46.088;18.268;2024-02-21T08:29:26;13.63;;;3.87;;
80675;SDS011;70041;46.088;18.268;2024-02-21T08:31:53;13.35;;;3.85;;
80675;SDS011;70041;46.088;18.268;2024-02-21T08:34:18;11.13;;;3.60;;
80675;SDS011;70041;46.088;18.268;2024-02-21T08:36:44;10.82;;;4.00;;
80675;SDS011;70041;46.088;18.268;2024-02-21T08:39:09;8.27;;;3.60;;
80675;SDS011;70041;46.088;18.268;2024-02-21T08:41:34;8.63;;;4.07;;
80675;SDS011;70041;46.088;18.268;2024-02-21T08:44:00;15.20;;;4.03;;
80675;SDS011;70041;46.088;18.268;2024-02-21T08:46:26;10.35;;;4.00;;
80675;SDS011;70041;46.088;18.268;2024-02-21T08:48:52;12.30;;;4.57;;
80675;SDS011;70041;46.088;18.268;2024-02-21T08:51:18;17.05;;;6.50;;
80675;SDS011;70041;46.088;18.268;2024-02-21T08:53:44;12.52;;;5.18;;
80675;SDS011;70041;46.088;18.268;2024-02-21T08:56:10;11.77;;;4.05;;
80675;SDS011;70041;46.088;18.268;2024-02-21T08:58:36;10.23;;;3.03;;
80675;SDS011;70041;46.088;18.268;2024-02-21T09:01:02;8.10;;;3.25;;
80675;SDS011;70041;46.088;18.268;2024-02-21T09:03:30;9.67;;;3.33;;
80675;SDS011;70041;46.088;18.268;2024-02-21T09:05:57;9.77;;;2.97;;
80675;SDS011;70041;46.088;18.268;2024-02-21T09:08:22;11.10;;;2.13;;
80675;SDS011;70041;46.088;18.268;2024-02-21T09:10:49;9.07;;;3.10;;
80675;SDS011;70041;46.088;18.268;2024-02-21T09:13:14;7.70;;;2.13;;
80675;SDS011;70041;46.088;18.268;2024-02-21T09:15:40;7.68;;;1.42;;
80675;SDS011;70041;46.088;18.268;2024-02-21T09:18:05;7.37;;;1.50;;
80675;SDS011;70041;46.088;18.268;2024-02-21T09:20:31;7.22;;;1.83;;
80675;SDS011;70041;46.088;18.268;2024-02-21T09:22:57;6.20;;;1.27;;
80675;SDS011;70041;46.088;18.268;2024-02-21T09:25:22;6.23;;;1.47;;
80675;SDS011;70041;46.088;18.268;2024-02-21T09:27:47;4.37;;;1.43;;
80675;SDS011;70041;46.088;18.268;2024-02-21T09:30:13;4.87;;;1.20;;
80675;SDS011;70041;46.088;18.268;2024-02-21T09:32:39;6.65;;;1.50;;
80675;SDS011;70041;46.088;18.268;2024-02-21T09:35:04;4.77;;;1.43;;
80675;SDS011;70041;46.088;18.268;2024-02-21T09:37:30;6.22;;;1.55;;
80675;SDS011;70041;46.088;18.268;2024-02-21T09:39:56;7.75;;;1.48;;
80675;SDS011;70041;46.088;18.268;2024-02-21T09:42:22;3.97;;;1.20;;
80675;SDS011;70041;46.088;18.268;2024-02-21T09:44:59;5.75;;;1.42;;
80675;SDS011;70041;46.088;18.268;2024-02-21T09:47:29;7.37;;;1.50;;
80675;SDS011;70041;46.088;18.268;2024-02-21T09:50:05;6.40;;;1.70;;
80675;SDS011;70041;46.088;18.268;2024-02-21T09:52:31;4.43;;;1.30;;
80675;SDS011;70041;46.088;18.268;2024-02-21T09:54:59;5.80;;;1.17;;
80675;SDS011;70041;46.088;18.268;2024-02-21T09:57:26;7.22;;;1.63;;
80675;SDS011;70041;46.088;18.268;2024-02-21T09:59:53;8.80;;;2.93;;
80675;SDS011;70041;46.088;18.268;2024-02-21T10:02:20;6.63;;;1.40;;
80675;SDS011;70041;46.088;18.268;2024-02-21T10:04:46;8.05;;;1.50;;
80675;SDS011;70041;46.088;18.268;2024-02-21T10:07:11;5.25;;;1.10;;
80675;SDS011;70041;46.088;18.268;2024-02-21T10:09:37;5.97;;;2.13;;
80675;SDS011;70041;46.088;18.268;2024-02-21T10:12:09;7.55;;;1.20;;
80675;SDS011;70041;46.088;18.268;2024-02-21T10:14:36;4.13;;;1.05;;
80675;SDS011;70041;46.088;18.268;2024-02-21T10:17:01;6.53;;;1.25;;
80675;SDS011;70041;46.088;18.268;2024-02-21T10:19:28;4.38;;;1.15;;
80675;SDS011;70041;46.088;18.268;2024-02-21T10:22:04;4.97;;;1.70;;
80675;SDS011;70041;46.088;18.268;2024-02-21T10:24:34;3.75;;;1.40;;
80675;SDS011;70041;46.088;18.268;2024-02-21T10:27:03;5.93;;;2.05;;
80675;SDS011;70041;46.088;18.268;2024-02-21T10:29:32;5.05;;;2.15;;
80675;SDS011;70041;46.088;18.268;2024-02-21T10:32:07;7.03;;;2.10;;
80675;SDS011;70041;46.088;18.268;2024-02-21T10:34:37;5.38;;;2.03;;
80675;SDS011;70041;46.088;18.268;2024-02-21T10:37:05;5.63;;;2.00;;
80675;SDS011;70041;46.088;18.268;2024-02-21T10:39:38;4.13;;;1.70;;
80675;SDS011;70041;46.088;18.268;2024-02-21T10:42:04;5.72;;;1.98;;
80675;SDS011;70041;46.088;18.268;2024-02-21T10:44:31;6.13;;;2.00;;
80675;SDS011;70041;46.088;18.268;2024-02-21T10:46:58;5.60;;;1.90;;
80675;SDS011;70041;46.088;18.268;2024-02-21T10:49:25;6.80;;;2.38;;
80675;SDS011;70041;46.088;18.268;2024-02-21T10:51:54;5.13;;;2.20;;
80675;SDS011;70041;46.088;18.268;2024-02-21T10:57:18;6.18;;;2.35;;
80675;SDS011;70041;46.088;18.268;2024-02-21T10:59:47;5.80;;;2.33;;
80675;SDS011;70041;46.088;18.268;2024-02-21T11:02:13;6.50;;;1.80;;
80675;SDS011;70041;46.088;18.268;2024-02-21T11:04:40;5.88;;;2.15;;
80675;SDS011;70041;46.088;18.268;2024-02-21T11:07:06;7.25;;;2.45;;
80675;SDS011;70041;46.088;18.268;2024-02-21T11:09:32;7.75;;;2.15;;
80675;SDS011;70041;46.088;18.268;2024-02-21T11:11:58;5.80;;;1.77;;
80675;SDS011;70041;46.088;18.268;2024-02-21T11:14:28;6.45;;;1.88;;
80675;SDS011;70041;46.088;18.268;2024-02-21T11:16:57;5.45;;;2.03;;
80675;SDS011;70041;46.088;18.268;2024-02-21T11:19:26;7.30;;;2.47;;
80675;SDS011;70041;46.088;18.268;2024-02-21T11:21:53;7.45;;;2.20;;
80675;SDS011;70041;46.088;18.268;2024-02-21T11:24:29;5.75;;;2.13;;
80675;SDS011;70041;46.088;18.268;2024-02-21T11:27:08;7.50;;;2.55;;
80675;SDS011;70041;46.088;18.268;2024-02-21T11:29:43;6.95;;;1.90;;
80675;SDS011;70041;46.088;18.268;2024-02-21T11:32:10;5.32;;;1.73;;
80675;SDS011;70041;46.088;18.268;2024-02-21T11:34:36;5.95;;;1.83;;
80675;SDS011;70041;46.088;18.268;2024-02-21T11:37:02;4.25;;;1.58;;
80675;SDS011;70041;46.088;18.268;2024-02-21T11:39:39;7.07;;;2.20;;
80675;SDS011;70041;46.088;18.268;2024-02-21T11:42:06;7.80;;;2.30;;
80675;SDS011;70041;46.088;18.268;2024-02-21T11:44:36;7.05;;;1.90;;
80675;SDS011;70041;46.088;18.268;2024-02-21T11:47:07;5.30;;;2.10;;
80675;SDS011;70041;46.088;18.268;2024-02-21T11:52:26;6.40;;;1.83;;
80675;SDS011;70041;46.088;18.268;2024-02-21T11:54:52;4.77;;;1.57;;
80675;SDS011;70041;46.088;18.268;2024-02-21T11:57:19;5.75;;;1.75;;
80675;SDS011;70041;46.088;18.268;2024-02-21T11:59:45;5.43;;;1.80;;
80675;SDS011;70041;46.088;18.268;2024-02-21T12:02:11;5.50;;;1.80;;
80675;SDS011;70041;46.088;18.268;2024-02-21T12:04:37;10.02;;;2.10;;
80675;SDS011;70041;46.088;18.268;2024-02-21T12:07:03;6.50;;;2.13;;
80675;SDS011;70041;46.088;18.268;2024-02-21T12:09:29;4.95;;;1.77;;
80675;SDS011;70041;46.088;18.268;2024-02-21T12:11:58;4.70;;;1.77;;
80675;SDS011;70041;46.088;18.268;2024-02-21T12:14:31;6.00;;;1.33;;
80675;SDS011;70041;46.088;18.268;2024-02-21T12:17:01;5.70;;;1.80;;
80675;SDS011;70041;46.088;18.268;2024-02-21T12:19:29;6.63;;;1.70;;
80675;SDS011;70041;46.088;18.268;2024-02-21T12:21:56;5.37;;;1.50;;
80675;SDS011;70041;46.088;18.268;2024-02-21T12:24:26;5.55;;;1.40;;
80675;SDS011;70041;46.088;18.268;2024-02-21T12:26:53;5.22;;;1.48;;
80675;SDS011;70041;46.088;18.268;2024-02-21T12:29:19;5.22;;;1.30;;
80675;SDS011;70041;46.088;18.268;2024-02-21T12:31:45;5.22;;;1.30;;
80675;SDS011;70041;46.088;18.268;2024-02-21T12:34:11;4.77;;;1.40;;
80675;SDS011;70041;46.088;18.268;2024-02-21T12:36:43;3.70;;;1.17;;
80675;SDS011;70041;46.088;18.268;2024-02-21T12:39:09;4.65;;;1.52;;
80675;SDS011;70041;46.088;18.268;2024-02-21T12:41:36;5.88;;;1.42;;
80675;SDS011;70041;46.088;18.268;2024-02-21T12:44:04;4.03;;;1.40;;
80675;SDS011;70041;46.088;18.268;2024-02-21T12:46:31;6.67;;;1.60;;
80675;SDS011;70041;46.088;18.268;2024-02-21T12:48:57;7.47;;;1.25;;
80675;SDS011;70041;46.088;18.268;2024-02-21T12:51:23;4.13;;;1.33;;
80675;SDS011;70041;46.088;18.268;2024-02-21T12:53:48;3.67;;;1.30;;
80675;SDS011;70041;46.088;18.268;2024-02-21T12:56:14;7.10;;;1.58;;
80675;SDS011;70041;46.088;18.268;2024-02-21T12:58:40;4.47;;;1.30;;
80675;SDS011;70041;46.088;18.268;2024-02-21T13:01:06;4.87;;;1.20;;
80675;SDS011;70041;46.088;18.268;2024-02-21T13:03:31;5.03;;;1.27;;
80675;SDS011;70041;46.088;18.268;2024-02-21T13:05:56;4.88;;;1.50;;
80675;SDS011;70041;46.088;18.268;2024-02-21T13:08:24;5.78;;;1.60;;
80675;SDS011;70041;46.088;18.268;2024-02-21T13:10:49;6.75;;;1.75;;
80675;SDS011;70041;46.088;18.268;2024-02-21T13:13:15;3.43;;;1.13;;
80675;SDS011;70041;46.088;18.268;2024-02-21T13:15:40;4.82;;;1.45;;
80675;SDS011;70041;46.088;18.268;2024-02-21T13:18:08;5.13;;;1.40;;
80675;SDS011;70041;46.088;18.268;2024-02-21T13:20:33;4.78;;;1.48;;
80675;SDS011;70041;46.088;18.268;2024-02-21T13:22:59;3.20;;;1.30;;
80675;SDS011;70041;46.088;18.268;2024-02-21T13:25:24;4.77;;;1.33;;
80675;SDS011;70041;46.088;18.268;2024-02-21T13:27:50;5.10;;;1.40;;
80675;SDS011;70041;46.088;18.268;2024-02-21T13:30:16;3.43;;;1.20;;
80675;SDS011;70041;46.088;18.268;2024-02-21T13:32:42;4.43;;;1.40;;
80675;SDS011;70041;46.088;18.268;2024-02-21T13:35:08;4.53;;;1.58;;
80675;SDS011;70041;46.088;18.268;2024-02-21T13:37:36;3.55;;;1.35;;
80675;SDS011;70041;46.088;18.268;2024-02-21T13:40:02;3.93;;;1.20;;
80675;SDS011;70041;46.088;18.268;2024-02-21T13:42:29;4.68;;;1.70;;
80675;SDS011;70041;46.088;18.268;2024-02-21T13:44:55;4.88;;;1.30;;
80675;SDS011;70041;46.088;18.268;2024-02-21T13:47:20;3.97;;;1.33;;
80675;SDS011;70041;46.088;18.268;2024-02-21T13:49:46;4.80;;;1.30;;
80675;SDS011;70041;46.088;18.268;2024-02-21T13:52:12;4.50;;;1.50;;
80675;SDS011;70041;46.088;18.268;2024-02-21T13:54:38;3.00;;;1.10;;
80675;SDS011;70041;46.088;18.268;2024-02-21T13:57:03;5.13;;;1.27;;
80675;SDS011;70041;46.088;18.268;2024-02-21T13:59:29;3.78;;;1.60;;
80675;SDS011;70041;46.088;18.268;2024-02-21T14:01:55;5.47;;;1.73;;
80675;SDS011;70041;46.088;18.268;2024-02-21T14:04:20;4.78;;;1.58;;
80675;SDS011;70041;46.088;18.268;2024-02-21T14:06:46;5.43;;;1.67;;
80675;SDS011;70041;46.088;18.268;2024-02-21T14:09:12;4.80;;;1.60;;
80675;SDS011;70041;46.088;18.268;2024-02-21T14:11:37;6.35;;;1.65;;
80675;SDS011;70041;46.088;18.268;2024-02-21T14:14:06;5.40;;;1.90;;
80675;SDS011;70041;46.088;18.268;2024-02-21T14:16:32;4.45;;;1.55;;
80675;SDS011;70041;46.088;18.268;2024-02-21T14:18:59;4.07;;;1.23;;
80675;SDS011;70041;46.088;18.268;2024-02-21T14:21:24;4.93;;;1.30;;
80675;SDS011;70041;46.088;18.268;2024-02-21T14:23:50;3.83;;;1.20;;
80675;SDS011;70041;46.088;18.268;2024-02-21T14:26:17;4.50;;;1.50;;
80675;SDS011;70041;46.088;18.268;2024-02-21T14:28:43;5.67;;;1.60;;
80675;SDS011;70041;46.088;18.268;2024-02-21T14:31:08;4.35;;;1.50;;
80675;SDS011;70041;46.088;18.268;2024-02-21T14:33:37;5.20;;;1.60;;